N987EC KBHM-KBHM
Flight info
| Callsign | N987EC |
|---|---|
| Flight time | 0h 4m |
| Altitude | VFR |
| Route | PATTERN |
| Aircraft | C152/L-DOV/C |
Departure
| Time | 2026-04-22 22:44 |
|---|---|
| Airport | Birmingham-Shuttlesworth International Airport (KBHM) |
Arrival
| Time | 2026-04-22 22:49 |
|---|---|
| Airport | Birmingham-Shuttlesworth International Airport (KBHM) |
| Time | Latitude | Longitude | Altitude | Speed | Heading |
|---|---|---|---|---|---|
| 2026-04-22 22:37 | 33.55897 | -86.74480 | 614 ft | 0 kts | 89° |
| 2026-04-22 22:37 | 33.55897 | -86.74479 | 614 ft | 2 kts | 95° |
| 2026-04-22 22:37 | 33.55886 | -86.74486 | 614 ft | 5 kts | 295° |
| 2026-04-22 22:37 | 33.55897 | -86.74536 | 612 ft | 8 kts | 266° |
| 2026-04-22 22:38 | 33.55921 | -86.74590 | 606 ft | 8 kts | 355° |
| 2026-04-22 22:38 | 33.55991 | -86.74590 | 608 ft | 15 kts | 359° |
| 2026-04-22 22:38 | 33.56109 | -86.74590 | 609 ft | 18 kts | 0° |
| 2026-04-22 22:38 | 33.56251 | -86.74589 | 612 ft | 20 kts | 0° |
| 2026-04-22 22:39 | 33.56377 | -86.74590 | 617 ft | 19 kts | 0° |
| 2026-04-22 22:39 | 33.56503 | -86.74589 | 620 ft | 17 kts | 0° |
| 2026-04-22 22:39 | 33.56622 | -86.74589 | 623 ft | 16 kts | 360° |
| 2026-04-22 22:39 | 33.56721 | -86.74589 | 626 ft | 12 kts | 1° |
| 2026-04-22 22:40 | 33.56777 | -86.74557 | 628 ft | 10 kts | 55° |
| 2026-04-22 22:40 | 33.56837 | -86.74453 | 628 ft | 16 kts | 56° |
| 2026-04-22 22:40 | 33.56910 | -86.74329 | 632 ft | 20 kts | 56° |
| 2026-04-22 22:40 | 33.56987 | -86.74192 | 630 ft | 20 kts | 53° |
| 2026-04-22 22:41 | 33.57063 | -86.74061 | 629 ft | 19 kts | 55° |
| 2026-04-22 22:41 | 33.57131 | -86.73944 | 634 ft | 15 kts | 54° |
| 2026-04-22 22:41 | 33.57191 | -86.73845 | 634 ft | 16 kts | 49° |
| 2026-04-22 22:41 | 33.57239 | -86.73835 | 633 ft | 5 kts | 320° |
| 2026-04-22 22:42 | 33.57271 | -86.73863 | 633 ft | 0 kts | 325° |
| 2026-04-22 22:43 | 33.57315 | -86.73908 | 635 ft | 15 kts | 302° |
| 2026-04-22 22:43 | 33.57293 | -86.74016 | 634 ft | 14 kts | 234° |
| 2026-04-22 22:43 | 33.57138 | -86.74283 | 629 ft | 64 kts | 235° |
| 2026-04-22 22:43 | 33.56865 | -86.74754 | 767 ft | 71 kts | 236° |
| 2026-04-22 22:44 | 33.56579 | -86.75247 | 936 ft | 74 kts | 234° |
| 2026-04-22 22:44 | 33.56286 | -86.75766 | 1088 ft | 78 kts | 238° |
| 2026-04-22 22:44 | 33.55978 | -86.76316 | 1247 ft | 79 kts | 236° |
| 2026-04-22 22:44 | 33.55662 | -86.76845 | 1437 ft | 75 kts | 236° |
| 2026-04-22 22:45 | 33.55364 | -86.77336 | 1633 ft | 74 kts | 230° |
| 2026-04-22 22:45 | 33.55049 | -86.77800 | 1713 ft | 73 kts | 226° |
| 2026-04-22 22:45 | 33.54592 | -86.77898 | 1792 ft | 74 kts | 162° |
| 2026-04-22 22:45 | 33.54133 | -86.77603 | 1822 ft | 79 kts | 123° |
| 2026-04-22 22:46 | 33.54185 | -86.76962 | 1856 ft | 81 kts | 63° |
| 2026-04-22 22:46 | 33.54503 | -86.76413 | 1905 ft | 80 kts | 58° |
| 2026-04-22 22:46 | 33.54821 | -86.75849 | 1865 ft | 82 kts | 59° |
| 2026-04-22 22:46 | 33.55143 | -86.75279 | 1833 ft | 83 kts | 59° |
| 2026-04-22 22:47 | 33.55475 | -86.74716 | 1805 ft | 86 kts | 58° |
| 2026-04-22 22:47 | 33.55821 | -86.74166 | 1845 ft | 83 kts | 56° |
| 2026-04-22 22:47 | 33.56176 | -86.73628 | 1865 ft | 83 kts | 53° |
| 2026-04-22 22:47 | 33.56519 | -86.73090 | 1796 ft | 81 kts | 57° |
| 2026-04-22 22:48 | 33.56840 | -86.72526 | 1674 ft | 76 kts | 59° |
| 2026-04-22 22:48 | 33.57334 | -86.72286 | 1462 ft | 82 kts | 340° |
| 2026-04-22 22:48 | 33.57768 | -86.72682 | 1277 ft | 72 kts | 308° |
| 2026-04-22 22:48 | 33.57721 | -86.73226 | 967 ft | 73 kts | 237° |
| 2026-04-22 22:49 | 33.57485 | -86.73687 | 755 ft | 57 kts | 236° |
| 2026-04-22 22:49 | 33.57284 | -86.74030 | 644 ft | 41 kts | 236° |
| 2026-04-22 22:49 | 33.57144 | -86.74271 | 630 ft | 31 kts | 235° |
| 2026-04-22 22:49 | 33.56938 | -86.74627 | 643 ft | 70 kts | 235° |
| 2026-04-22 22:50 | 33.56651 | -86.75106 | 815 ft | 72 kts | 233° |
| 2026-04-22 22:50 | 33.56369 | -86.75575 | 1014 ft | 70 kts | 235° |
| 2026-04-22 22:50 | 33.56092 | -86.76059 | 1186 ft | 72 kts | 240° |
| 2026-04-22 22:50 | 33.55828 | -86.76563 | 1384 ft | 70 kts | 237° |
| 2026-04-22 22:51 | 33.55571 | -86.77046 | 1590 ft | 67 kts | 235° |
| 2026-04-22 22:51 | 33.55300 | -86.77516 | 1701 ft | 73 kts | 230° |
| 2026-04-22 22:51 | 33.54849 | -86.77611 | 1756 ft | 78 kts | 150° |
| 2026-04-22 22:51 | 33.54426 | -86.77303 | 1855 ft | 69 kts | 153° |
| 2026-04-22 22:52 | 33.54162 | -86.76821 | 1803 ft | 81 kts | 92° |
| 2026-04-22 22:52 | 33.54430 | -86.76227 | 1839 ft | 79 kts | 50° |
| 2026-04-22 22:52 | 33.54787 | -86.75758 | 1878 ft | 76 kts | 48° |
| 2026-04-22 22:52 | 33.55132 | -86.75265 | 1907 ft | 78 kts | 51° |
| 2026-04-22 22:53 | 33.55485 | -86.74732 | 1889 ft | 84 kts | 54° |
| 2026-04-22 22:53 | 33.55851 | -86.74224 | 1938 ft | 82 kts | 52° |
| 2026-04-22 22:53 | 33.56229 | -86.73701 | 1909 ft | 81 kts | 50° |
| 2026-04-22 22:53 | 33.56612 | -86.73208 | 1882 ft | 79 kts | 53° |
| 2026-04-22 22:54 | 33.56974 | -86.72758 | 1720 ft | 75 kts | 23° |
| 2026-04-22 22:54 | 33.57485 | -86.73084 | 1238 ft | 82 kts | 317° |
| 2026-04-22 22:54 | 33.57548 | -86.73626 | 840 ft | 67 kts | 232° |
| 2026-04-22 22:54 | 33.57305 | -86.73998 | 690 ft | 50 kts | 238° |
| 2026-04-22 22:55 | 33.57135 | -86.74287 | 634 ft | 34 kts | 227° |
| 2026-04-22 22:55 | 33.56998 | -86.74524 | 629 ft | 25 kts | 233° |
| 2026-04-22 22:55 | 33.56834 | -86.74801 | 631 ft | 18 kts | 232° |
| 2026-04-22 22:56 | 33.56752 | -86.74851 | 627 ft | 12 kts | 180° |
| 2026-04-22 22:56 | 33.56657 | -86.74851 | 626 ft | 10 kts | 179° |
| 2026-04-22 22:56 | 33.56650 | -86.74851 | 632 ft | 0 kts | 179° |
| 2026-04-22 22:57 | 33.56597 | -86.74847 | 624 ft | 21 kts | 180° |
| 2026-04-22 22:57 | 33.56490 | -86.74828 | 625 ft | 12 kts | 127° |
| 2026-04-22 22:57 | 33.56416 | -86.74728 | 620 ft | 17 kts | 124° |
| 2026-04-22 22:57 | 33.56426 | -86.74613 | 618 ft | 12 kts | 84° |
| 2026-04-22 22:58 | 33.56437 | -86.74491 | 621 ft | 15 kts | 86° |
| 2026-04-22 22:58 | 33.56442 | -86.74382 | 623 ft | 11 kts | 99° |
| 2026-04-22 22:58 | 33.56413 | -86.74360 | 623 ft | 0 kts | 195° |